sensor_id;sensor_type;location;lat;lon;timestamp;pressure;altitude;pressure_sealevel;temperature;humidity
79752;BME280;69234;47.446;21.636;2023-05-28T00:00:10;100684.53;;;14.65;62.15
79752;BME280;69234;47.446;21.636;2023-05-28T00:00:46;100675.16;;;14.60;62.86
79752;BME280;69234;47.446;21.636;2023-05-28T00:01:17;100691.09;;;14.63;62.31
79752;BME280;69234;47.446;21.636;2023-05-28T00:01:48;100683.13;;;14.61;62.25
79752;BME280;69234;47.446;21.636;2023-05-28T00:02:18;100689.41;;;14.62;62.41
79752;BME280;69234;47.446;21.636;2023-05-28T00:02:49;100682.97;;;14.63;62.38
79752;BME280;69234;47.446;21.636;2023-05-28T00:03:20;100689.13;;;14.55;62.47
79752;BME280;69234;47.446;21.636;2023-05-28T00:03:51;100679.84;;;14.58;63.03
79752;BME280;69234;47.446;21.636;2023-05-28T00:04:21;100687.97;;;14.58;62.09
79752;BME280;69234;47.446;21.636;2023-05-28T00:04:52;100681.03;;;14.55;62.79
79752;BME280;69234;47.446;21.636;2023-05-28T00:05:23;100679.31;;;14.54;62.66
79752;BME280;69234;47.446;21.636;2023-05-28T00:05:54;100691.69;;;14.57;63.12
79752;BME280;69234;47.446;21.636;2023-05-28T00:06:25;100688.13;;;14.56;63.07
79752;BME280;69234;47.446;21.636;2023-05-28T00:06:55;100695.38;;;14.56;62.16
79752;BME280;69234;47.446;21.636;2023-05-28T00:07:27;100688.25;;;14.55;63.17
79752;BME280;69234;47.446;21.636;2023-05-28T00:08:01;100685.88;;;14.52;62.38
79752;BME280;69234;47.446;21.636;2023-05-28T00:08:32;100671.22;;;14.44;63.21
79752;BME280;69234;47.446;21.636;2023-05-28T00:09:02;100675.38;;;14.39;62.72
79752;BME280;69234;47.446;21.636;2023-05-28T00:09:33;100685.44;;;14.46;62.63
79752;BME280;69234;47.446;21.636;2023-05-28T00:10:05;100687.13;;;14.47;62.69
79752;BME280;69234;47.446;21.636;2023-05-28T00:10:36;100684.56;;;14.46;62.70
79752;BME280;69234;47.446;21.636;2023-05-28T00:11:06;100674.91;;;14.43;62.36
79752;BME280;69234;47.446;21.636;2023-05-28T00:11:37;100680.19;;;14.45;62.58
79752;BME280;69234;47.446;21.636;2023-05-28T00:12:08;100682.88;;;14.45;62.43
79752;BME280;69234;47.446;21.636;2023-05-28T00:12:39;100674.06;;;14.43;63.26
79752;BME280;69234;47.446;21.636;2023-05-28T00:13:10;100674.91;;;14.43;62.49
79752;BME280;69234;47.446;21.636;2023-05-28T00:13:41;100680.19;;;14.45;63.72
79752;BME280;69234;47.446;21.636;2023-05-28T00:14:11;100676.75;;;14.43;62.91
79752;BME280;69234;47.446;21.636;2023-05-28T00:14:42;100678.31;;;14.45;62.68
79752;BME280;69234;47.446;21.636;2023-05-28T00:15:13;100676.94;;;14.41;63.15
79752;BME280;69234;47.446;21.636;2023-05-28T00:15:44;100674.06;;;14.43;63.48
79752;BME280;69234;47.446;21.636;2023-05-28T00:16:15;100678.47;;;14.44;63.10
79752;BME280;69234;47.446;21.636;2023-05-28T00:16:46;100682.34;;;14.41;63.97
79752;BME280;69234;47.446;21.636;2023-05-28T00:17:17;100665.31;;;14.31;63.70
79752;BME280;69234;47.446;21.636;2023-05-28T00:17:48;100675.50;;;14.37;63.55
79752;BME280;69234;47.446;21.636;2023-05-28T00:18:23;100672.09;;;14.35;63.23
79752;BME280;69234;47.446;21.636;2023-05-28T00:18:54;100674.66;;;14.37;63.08
79752;BME280;69234;47.446;21.636;2023-05-28T00:19:25;100674.94;;;14.34;63.79
79752;BME280;69234;47.446;21.636;2023-05-28T00:19:55;100668.69;;;14.33;63.52
79752;BME280;69234;47.446;21.636;2023-05-28T00:20:26;100656.09;;;14.24;63.12
79752;BME280;69234;47.446;21.636;2023-05-28T00:20:57;100676.78;;;14.33;63.15
79752;BME280;69234;47.446;21.636;2023-05-28T00:21:28;100675.81;;;14.34;63.41
79752;BME280;69234;47.446;21.636;2023-05-28T00:21:59;100668.69;;;14.33;63.06
79752;BME280;69234;47.446;21.636;2023-05-28T00:22:29;100669.69;;;14.32;63.16
79752;BME280;69234;47.446;21.636;2023-05-28T00:23:00;100677.63;;;14.34;63.84
79752;BME280;69234;47.446;21.636;2023-05-28T00:23:31;100671.38;;;14.33;62.63
79752;BME280;69234;47.446;21.636;2023-05-28T00:24:03;100655.38;;;14.22;62.88
79752;BME280;69234;47.446;21.636;2023-05-28T00:24:34;100675.09;;;14.32;63.58
79752;BME280;69234;47.446;21.636;2023-05-28T00:25:05;100664.75;;;14.27;63.23
79752;BME280;69234;47.446;21.636;2023-05-28T00:25:36;100667.44;;;14.27;63.65
79752;BME280;69234;47.446;21.636;2023-05-28T00:26:07;100663.91;;;14.27;63.30
79752;BME280;69234;47.446;21.636;2023-05-28T00:26:37;100667.28;;;14.29;63.83
79752;BME280;69234;47.446;21.636;2023-05-28T00:27:08;100653.97;;;14.18;64.00
79752;BME280;69234;47.446;21.636;2023-05-28T00:27:39;100647.72;;;14.17;63.89
79752;BME280;69234;47.446;21.636;2023-05-28T00:28:10;100665.88;;;14.25;64.03
79752;BME280;69234;47.446;21.636;2023-05-28T00:28:41;100657.34;;;14.20;63.81
79752;BME280;69234;47.446;21.636;2023-05-28T00:29:11;100658.22;;;14.20;63.66
79752;BME280;69234;47.446;21.636;2023-05-28T00:29:43;100665.88;;;14.25;63.47
79752;BME280;69234;47.446;21.636;2023-05-28T00:30:14;100657.06;;;14.23;63.26
79752;BME280;69234;47.446;21.636;2023-05-28T00:30:46;100665.16;;;14.23;63.22
79752;BME280;69234;47.446;21.636;2023-05-28T00:31:17;100659.06;;;14.21;63.89
79752;BME280;69234;47.446;21.636;2023-05-28T00:31:48;100666.19;;;14.22;64.12
79752;BME280;69234;47.446;21.636;2023-05-28T00:32:19;100665.03;;;14.24;64.15
79752;BME280;69234;47.446;21.636;2023-05-28T00:32:50;100665.47;;;14.20;63.42
79752;BME280;69234;47.446;21.636;2023-05-28T00:33:20;100664.47;;;14.21;63.52
79752;BME280;69234;47.446;21.636;2023-05-28T00:33:51;100664.47;;;14.21;63.33
79752;BME280;69234;47.446;21.636;2023-05-28T00:34:23;100656.53;;;14.10;63.75
79752;BME280;69234;47.446;21.636;2023-05-28T00:34:55;100654.25;;;14.15;63.13
79752;BME280;69234;47.446;21.636;2023-05-28T00:35:26;100662.19;;;14.16;64.23
79752;BME280;69234;47.446;21.636;2023-05-28T00:35:57;100656.53;;;14.10;63.30
79752;BME280;69234;47.446;21.636;2023-05-28T00:36:28;100664.34;;;14.13;64.08
79752;BME280;69234;47.446;21.636;2023-05-28T00:36:58;100662.81;;;14.10;63.56
79752;BME280;69234;47.446;21.636;2023-05-28T00:37:29;100665.06;;;14.15;64.22
79752;BME280;69234;47.446;21.636;2023-05-28T00:38:00;100670.63;;;14.13;63.33
79752;BME280;69234;47.446;21.636;2023-05-28T00:38:31;100663.66;;;14.11;63.63
79752;BME280;69234;47.446;21.636;2023-05-28T00:39:02;100661.66;;;14.13;63.51
79752;BME280;69234;47.446;21.636;2023-05-28T00:39:35;100655.97;;;14.06;63.86
79752;BME280;69234;47.446;21.636;2023-05-28T00:40:07;100658.53;;;14.08;63.30
79752;BME280;69234;47.446;21.636;2023-05-28T00:40:43;100653.59;;;14.03;63.61
79752;BME280;69234;47.446;21.636;2023-05-28T00:41:22;100650.88;;;14.03;64.43
79752;BME280;69234;47.446;21.636;2023-05-28T00:42:01;100658.53;;;14.08;64.33
79752;BME280;69234;47.446;21.636;2023-05-28T00:42:32;100669.91;;;14.11;64.13
79752;BME280;69234;47.446;21.636;2023-05-28T00:43:03;100655.69;;;14.09;63.36
79752;BME280;69234;47.446;21.636;2023-05-28T00:43:34;100656.53;;;14.10;63.86
79752;BME280;69234;47.446;21.636;2023-05-28T00:44:06;100654.84;;;14.09;64.32
79752;BME280;69234;47.446;21.636;2023-05-28T00:44:36;100648.88;;;14.05;63.31
79752;BME280;69234;47.446;21.636;2023-05-28T00:45:10;100649.03;;;14.03;63.73
79752;BME280;69234;47.446;21.636;2023-05-28T00:45:41;100654.44;;;14.03;63.56
79752;BME280;69234;47.446;21.636;2023-05-28T00:46:12;100658.00;;;14.04;63.87
79752;BME280;69234;47.446;21.636;2023-05-28T00:46:48;100642.91;;;14.01;63.40
79752;BME280;69234;47.446;21.636;2023-05-28T00:47:20;100651.75;;;14.03;63.41
79752;BME280;69234;47.446;21.636;2023-05-28T00:47:50;100652.44;;;14.06;63.99
79752;BME280;69234;47.446;21.636;2023-05-28T00:48:21;100644.94;;;13.99;63.12
79752;BME280;69234;47.446;21.636;2023-05-28T00:48:53;100659.13;;;14.01;63.65
79752;BME280;69234;47.446;21.636;2023-05-28T00:49:24;100657.44;;;14.00;63.30
79752;BME280;69234;47.446;21.636;2023-05-28T00:49:55;100649.78;;;13.96;63.42
79752;BME280;69234;47.446;21.636;2023-05-28T00:50:26;100650.19;;;13.91;64.54
79752;BME280;69234;47.446;21.636;2023-05-28T00:50:58;100653.44;;;13.95;63.81
79752;BME280;69234;47.446;21.636;2023-05-28T00:51:30;100646.91;;;13.97;63.84
79752;BME280;69234;47.446;21.636;2023-05-28T00:52:03;100652.75;;;13.93;63.57
79752;BME280;69234;47.446;21.636;2023-05-28T00:52:37;100648.22;;;13.93;63.68
79752;BME280;69234;47.446;21.636;2023-05-28T00:53:08;100650.75;;;13.95;64.50
79752;BME280;69234;47.446;21.636;2023-05-28T00:53:41;100652.03;;;13.91;63.53
79752;BME280;69234;47.446;21.636;2023-05-28T00:54:11;100641.41;;;13.89;64.53
79752;BME280;69234;47.446;21.636;2023-05-28T00:54:43;100649.50;;;13.89;64.26
79752;BME280;69234;47.446;21.636;2023-05-28T00:55:15;100636.56;;;13.83;63.92
79752;BME280;69234;47.446;21.636;2023-05-28T00:55:47;100640.84;;;13.86;64.32
79752;BME280;69234;47.446;21.636;2023-05-28T00:56:18;100644.94;;;13.90;63.68
79752;BME280;69234;47.446;21.636;2023-05-28T00:56:49;100649.19;;;13.92;63.86
79752;BME280;69234;47.446;21.636;2023-05-28T00:57:23;100647.50;;;13.91;64.34
79752;BME280;69234;47.446;21.636;2023-05-28T00:57:54;100648.50;;;13.90;63.94
79752;BME280;69234;47.446;21.636;2023-05-28T00:58:26;100653.91;;;13.90;63.55
79752;BME280;69234;47.446;21.636;2023-05-28T00:59:00;100644.94;;;13.90;64.43
79752;BME280;69234;47.446;21.636;2023-05-28T00:59:32;100640.97;;;13.84;64.23
79752;BME280;69234;47.446;21.636;2023-05-28T01:00:05;100644.69;;;13.83;63.73
79752;BME280;69234;47.446;21.636;2023-05-28T01:00:37;100628.88;;;13.78;64.56
79752;BME280;69234;47.446;21.636;2023-05-28T01:01:08;100640.13;;;13.84;64.26
79752;BME280;69234;47.446;21.636;2023-05-28T01:01:41;100650.47;;;13.88;64.14
79752;BME280;69234;47.446;21.636;2023-05-28T01:02:13;100645.25;;;13.87;64.45
79752;BME280;69234;47.446;21.636;2023-05-28T01:02:44;100648.06;;;13.85;63.97
79752;BME280;69234;47.446;21.636;2023-05-28T01:03:15;100649.78;;;13.86;63.96
79752;BME280;69234;47.446;21.636;2023-05-28T01:03:46;100644.69;;;13.83;63.53
79752;BME280;69234;47.446;21.636;2023-05-28T01:04:18;100652.63;;;13.85;64.26
79752;BME280;69234;47.446;21.636;2023-05-28T01:04:49;100650.38;;;13.80;64.83
79752;BME280;69234;47.446;21.636;2023-05-28T01:05:21;100647.22;;;13.75;64.06
79752;BME280;69234;47.446;21.636;2023-05-28T01:05:53;100642.25;;;13.80;64.75
79752;BME280;69234;47.446;21.636;2023-05-28T01:06:24;100635.47;;;13.76;64.18
79752;BME280;69234;47.446;21.636;2023-05-28T01:06:56;100640.28;;;13.82;64.09
79752;BME280;69234;47.446;21.636;2023-05-28T01:07:27;100648.38;;;13.82;64.00
79752;BME280;69234;47.446;21.636;2023-05-28T01:08:03;100643.84;;;13.83;64.40
79752;BME280;69234;47.446;21.636;2023-05-28T01:08:34;100649.50;;;13.79;64.48
79752;BME280;69234;47.446;21.636;2023-05-28T01:09:06;100645.41;;;13.75;64.55
79752;BME280;69234;47.446;21.636;2023-05-28T01:09:37;100648.81;;;13.77;64.81
79752;BME280;69234;47.446;21.636;2023-05-28T01:10:08;100641.53;;;13.78;64.27
79752;BME280;69234;47.446;21.636;2023-05-28T01:10:40;100647.78;;;13.78;64.61
79752;BME280;69234;47.446;21.636;2023-05-28T01:11:15;100642.00;;;13.73;64.32
79752;BME280;69234;47.446;21.636;2023-05-28T01:11:48;100655.22;;;13.76;64.37
79752;BME280;69234;47.446;21.636;2023-05-28T01:12:24;100637.03;;;13.69;64.55
79752;BME280;69234;47.446;21.636;2023-05-28T01:12:59;100648.53;;;13.71;64.70
79752;BME280;69234;47.446;21.636;2023-05-28T01:13:33;100649.38;;;13.71;64.46
79752;BME280;69234;47.446;21.636;2023-05-28T01:14:05;100643.97;;;13.71;64.49
79752;BME280;69234;47.446;21.636;2023-05-28T01:14:37;100648.25;;;13.74;64.64
79752;BME280;69234;47.446;21.636;2023-05-28T01:15:09;100654.47;;;13.74;64.02
79752;BME280;69234;47.446;21.636;2023-05-28T01:15:40;100646.81;;;13.70;64.94
79752;BME280;69234;47.446;21.636;2023-05-28T01:16:12;100655.94;;;13.69;64.24
79752;BME280;69234;47.446;21.636;2023-05-28T01:16:43;100640.31;;;13.63;64.20
79752;BME280;69234;47.446;21.636;2023-05-28T01:17:15;100643.00;;;13.63;64.62
79752;BME280;69234;47.446;21.636;2023-05-28T01:17:46;100635.19;;;13.60;64.31
79752;BME280;69234;47.446;21.636;2023-05-28T01:18:18;100651.94;;;13.63;64.53
79752;BME280;69234;47.446;21.636;2023-05-28T01:18:50;100650.94;;;13.64;65.20
79752;BME280;69234;47.446;21.636;2023-05-28T01:19:27;100646.56;;;13.63;64.46
79752;BME280;69234;47.446;21.636;2023-05-28T01:19:58;100649.97;;;13.65;64.53
79752;BME280;69234;47.446;21.636;2023-05-28T01:20:41;100655.22;;;13.67;64.33
79752;BME280;69234;47.446;21.636;2023-05-28T01:21:12;100644.69;;;13.64;64.74
79752;BME280;69234;47.446;21.636;2023-05-28T01:21:45;100652.50;;;13.67;64.31
79752;BME280;69234;47.446;21.636;2023-05-28T01:22:18;100651.94;;;13.63;64.94
79752;BME280;69234;47.446;21.636;2023-05-28T01:23:06;100640.44;;;13.61;64.47
79752;BME280;69234;47.446;21.636;2023-05-28T01:23:45;100646.72;;;13.62;64.74
79752;BME280;69234;47.446;21.636;2023-05-28T01:24:18;100648.69;;;13.60;65.33
79752;BME280;69234;47.446;21.636;2023-05-28T01:24:49;100645.25;;;13.57;64.77
79752;BME280;69234;47.446;21.636;2023-05-28T01:25:23;100640.47;;;13.51;65.52
79752;BME280;69234;47.446;21.636;2023-05-28T01:25:54;100641.88;;;13.55;65.56
79752;BME280;69234;47.446;21.636;2023-05-28T01:26:27;100644.28;;;13.59;64.80
79752;BME280;69234;47.446;21.636;2023-05-28T01:27:02;100642.88;;;13.54;64.92
79752;BME280;69234;47.446;21.636;2023-05-28T01:27:33;100641.31;;;13.52;64.99
79752;BME280;69234;47.446;21.636;2023-05-28T01:28:13;100641.16;;;13.53;64.65
79752;BME280;69234;47.446;21.636;2023-05-28T01:28:46;100641.88;;;13.55;64.59
79752;BME280;69234;47.446;21.636;2023-05-28T01:29:18;100635.19;;;13.50;65.42
79752;BME280;69234;47.446;21.636;2023-05-28T01:29:50;100639.47;;;13.52;64.43
79752;BME280;69234;47.446;21.636;2023-05-28T01:30:20;100643.72;;;13.55;64.49
79752;BME280;69234;47.446;21.636;2023-05-28T01:30:51;100637.19;;;13.48;65.06
79752;BME280;69234;47.446;21.636;2023-05-28T01:31:23;100633.34;;;13.50;64.43
79752;BME280;69234;47.446;21.636;2023-05-28T01:31:54;100626.97;;;13.42;65.38
79752;BME280;69234;47.446;21.636;2023-05-28T01:32:26;100641.44;;;13.50;65.65
79752;BME280;69234;47.446;21.636;2023-05-28T01:32:57;100629.09;;;13.48;65.33
79752;BME280;69234;47.446;21.636;2023-05-28T01:33:28;100631.94;;;13.46;65.55
79752;BME280;69234;47.446;21.636;2023-05-28T01:34:00;100638.19;;;13.47;64.79
79752;BME280;69234;47.446;21.636;2023-05-28T01:34:31;100633.66;;;13.47;64.79
79752;BME280;69234;47.446;21.636;2023-05-28T01:35:04;100644.72;;;13.44;65.36
79752;BME280;69234;47.446;21.636;2023-05-28T01:35:35;100636.63;;;13.44;65.28
79752;BME280;69234;47.446;21.636;2023-05-28T01:36:11;100625.84;;;13.35;64.52
79752;BME280;69234;47.446;21.636;2023-05-28T01:36:55;100633.06;;;13.44;64.95
79752;BME280;69234;47.446;21.636;2023-05-28T01:37:28;100637.31;;;13.46;65.14
79752;BME280;69234;47.446;21.636;2023-05-28T01:38:03;100631.38;;;13.43;64.93
79752;BME280;69234;47.446;21.636;2023-05-28T01:38:36;100632.22;;;13.43;64.82
79752;BME280;69234;47.446;21.636;2023-05-28T01:39:14;100629.81;;;13.40;65.00
79752;BME280;69234;47.446;21.636;2023-05-28T01:39:49;100633.06;;;13.44;64.68
79752;BME280;69234;47.446;21.636;2023-05-28T01:40:22;100634.91;;;13.43;65.22
79752;BME280;69234;47.446;21.636;2023-05-28T01:40:55;100635.91;;;13.42;64.77
79752;BME280;69234;47.446;21.636;2023-05-28T01:41:27;100636.06;;;13.41;64.68
79752;BME280;69234;47.446;21.636;2023-05-28T01:41:58;100620.56;;;13.33;64.83
79752;BME280;69234;47.446;21.636;2023-05-28T01:42:32;100634.22;;;13.41;65.38
79752;BME280;69234;47.446;21.636;2023-05-28T01:43:04;100638.78;;;13.41;65.73
79752;BME280;69234;47.446;21.636;2023-05-28T01:43:35;100631.94;;;13.37;64.95
79752;BME280;69234;47.446;21.636;2023-05-28T01:44:06;100620.44;;;13.35;64.92
79752;BME280;69234;47.446;21.636;2023-05-28T01:44:39;100634.50;;;13.38;65.30
79752;BME280;69234;47.446;21.636;2023-05-28T01:45:12;100626.53;;;13.37;64.93
79752;BME280;69234;47.446;21.636;2023-05-28T01:45:43;100630.13;;;13.37;65.37
79752;BME280;69234;47.446;21.636;2023-05-28T01:46:14;100625.69;;;13.36;65.43
79752;BME280;69234;47.446;21.636;2023-05-28T01:46:47;100634.63;;;13.37;65.22
79752;BME280;69234;47.446;21.636;2023-05-28T01:47:19;100626.25;;;13.30;65.09
79752;BME280;69234;47.446;21.636;2023-05-28T01:47:50;100625.00;;;13.34;64.83
79752;BME280;69234;47.446;21.636;2023-05-28T01:48:23;100616.63;;;13.27;65.50
79752;BME280;69234;47.446;21.636;2023-05-28T01:48:55;100631.66;;;13.30;65.37
79752;BME280;69234;47.446;21.636;2023-05-28T01:49:26;100625.97;;;13.33;65.41
79752;BME280;69234;47.446;21.636;2023-05-28T01:49:58;100625.97;;;13.33;64.76
79752;BME280;69234;47.446;21.636;2023-05-28T01:50:29;100628.94;;;13.30;64.75
79752;BME280;69234;47.446;21.636;2023-05-28T01:51:03;100622.84;;;13.28;64.63
79752;BME280;69234;47.446;21.636;2023-05-28T01:51:34;100628.25;;;13.28;65.67
79752;BME280;69234;47.446;21.636;2023-05-28T01:52:06;100619.44;;;13.26;64.80
79752;BME280;69234;47.446;21.636;2023-05-28T01:52:38;100618.75;;;13.24;64.98
79752;BME280;69234;47.446;21.636;2023-05-28T01:53:09;100633.66;;;13.28;65.81
79752;BME280;69234;47.446;21.636;2023-05-28T01:53:40;100621.44;;;13.24;65.99
79752;BME280;69234;47.446;21.636;2023-05-28T01:54:11;100622.69;;;13.20;65.72
79752;BME280;69234;47.446;21.636;2023-05-28T01:54:42;100611.47;;;13.15;65.90
79752;BME280;69234;47.446;21.636;2023-05-28T01:55:13;100629.63;;;13.22;66.10
79752;BME280;69234;47.446;21.636;2023-05-28T01:55:46;100628.66;;;13.23;65.95
79752;BME280;69234;47.446;21.636;2023-05-28T01:56:17;100626.09;;;13.22;65.96
79752;BME280;69234;47.446;21.636;2023-05-28T01:56:48;100628.78;;;13.22;65.57
79752;BME280;69234;47.446;21.636;2023-05-28T01:57:19;100629.63;;;13.22;65.46
79752;BME280;69234;47.446;21.636;2023-05-28T01:57:53;100628.78;;;13.22;65.31
79752;BME280;69234;47.446;21.636;2023-05-28T01:58:24;100621.69;;;13.21;65.04
79752;BME280;69234;47.446;21.636;2023-05-28T01:58:55;100627.09;;;13.21;65.94
79752;BME280;69234;47.446;21.636;2023-05-28T01:59:26;100623.38;;;13.22;65.25
79752;BME280;69234;47.446;21.636;2023-05-28T01:59:57;100617.88;;;13.14;65.24
79752;BME280;69234;47.446;21.636;2023-05-28T02:00:28;100610.63;;;13.14;65.92
79752;BME280;69234;47.446;21.636;2023-05-28T02:01:31;100621.25;;;13.16;65.47
79752;BME280;69234;47.446;21.636;2023-05-28T02:02:05;100620.56;;;13.14;66.47
79752;BME280;69234;47.446;21.636;2023-05-28T02:02:36;100619.00;;;13.11;65.71
79752;BME280;69234;47.446;21.636;2023-05-28T02:03:07;100625.94;;;13.14;65.80
79752;BME280;69234;47.446;21.636;2023-05-28T02:03:41;100621.69;;;13.11;65.92
79752;BME280;69234;47.446;21.636;2023-05-28T02:04:12;100620.69;;;13.12;65.32
79752;BME280;69234;47.446;21.636;2023-05-28T02:04:43;100619.16;;;13.09;66.22
79752;BME280;69234;47.446;21.636;2023-05-28T02:05:13;100620.00;;;13.10;66.46
79752;BME280;69234;47.446;21.636;2023-05-28T02:05:44;100620.56;;;13.14;65.46
79752;BME280;69234;47.446;21.636;2023-05-28T02:06:15;100616.44;;;13.09;65.50
79752;BME280;69234;47.446;21.636;2023-05-28T02:06:46;100617.13;;;13.12;66.33
79752;BME280;69234;47.446;21.636;2023-05-28T02:07:17;100618.84;;;13.13;65.45
79752;BME280;69234;47.446;21.636;2023-05-28T02:07:48;100617.56;;;13.07;66.39
79752;BME280;69234;47.446;21.636;2023-05-28T02:08:19;100621.69;;;13.11;65.44
79752;BME280;69234;47.446;21.636;2023-05-28T02:08:50;100612.03;;;13.08;65.46
79752;BME280;69234;47.446;21.636;2023-05-28T02:09:21;100620.28;;;13.07;66.55
79752;BME280;69234;47.446;21.636;2023-05-28T02:09:52;100624.66;;;13.08;65.67
79752;BME280;69234;47.446;21.636;2023-05-28T02:10:23;100613.03;;;13.07;65.88
79752;BME280;69234;47.446;21.636;2023-05-28T02:10:55;100620.53;;;13.04;66.53
79752;BME280;69234;47.446;21.636;2023-05-28T02:11:26;100616.56;;;13.08;66.62
79752;BME280;69234;47.446;21.636;2023-05-28T02:11:59;100605.38;;;13.03;65.83
79752;BME280;69234;47.446;21.636;2023-05-28T02:12:33;100614.88;;;13.07;65.77
79752;BME280;69234;47.446;21.636;2023-05-28T02:13:04;100616.56;;;13.08;66.56
79752;BME280;69234;47.446;21.636;2023-05-28T02:13:35;100618.56;;;13.06;66.32
79752;BME280;69234;47.446;21.636;2023-05-28T02:14:05;100617.00;;;13.03;66.76
79752;BME280;69234;47.446;21.636;2023-05-28T02:14:36;100599.53;;;12.98;66.66
79752;BME280;69234;47.446;21.636;2023-05-28T02:15:07;100617.41;;;13.08;66.58
79752;BME280;69234;47.446;21.636;2023-05-28T02:15:38;100615.00;;;13.05;65.98
79752;BME280;69234;47.446;21.636;2023-05-28T02:16:10;100607.50;;;12.99;66.40
79752;BME280;69234;47.446;21.636;2023-05-28T02:16:48;100615.16;;;13.04;65.71
79752;BME280;69234;47.446;21.636;2023-05-28T02:17:19;100617.13;;;13.02;66.17
79752;BME280;69234;47.446;21.636;2023-05-28T02:17:51;100613.31;;;13.04;66.50
79752;BME280;69234;47.446;21.636;2023-05-28T02:18:22;100622.53;;;13.02;66.12
79752;BME280;69234;47.446;21.636;2023-05-28T02:18:52;100611.88;;;13.00;66.44
79752;BME280;69234;47.446;21.636;2023-05-28T02:19:26;100625.94;;;13.04;66.34
79752;BME280;69234;47.446;21.636;2023-05-28T02:19:56;100622.25;;;13.05;65.65
79752;BME280;69234;47.446;21.636;2023-05-28T02:20:31;100614.59;;;13.00;65.95
79752;BME280;69234;47.446;21.636;2023-05-28T02:21:02;100622.53;;;13.02;65.99
79752;BME280;69234;47.446;21.636;2023-05-28T02:21:33;100599.97;;;12.93;66.83
79752;BME280;69234;47.446;21.636;2023-05-28T02:22:05;100619.25;;;12.98;66.79
79752;BME280;69234;47.446;21.636;2023-05-28T02:22:41;100617.84;;;12.94;66.60
79752;BME280;69234;47.446;21.636;2023-05-28T02:23:12;100625.66;;;12.97;66.14
79752;BME280;69234;47.446;21.636;2023-05-28T02:23:47;100611.44;;;12.95;66.25
79752;BME280;69234;47.446;21.636;2023-05-28T02:24:20;100622.94;;;12.97;67.20
79752;BME280;69234;47.446;21.636;2023-05-28T02:24:51;100610.28;;;12.88;66.60
79752;BME280;69234;47.446;21.636;2023-05-28T02:25:22;100623.38;;;12.93;67.26
79752;BME280;69234;47.446;21.636;2023-05-28T02:25:53;100621.53;;;12.93;66.76
79752;BME280;69234;47.446;21.636;2023-05-28T02:26:24;100622.38;;;12.94;67.14
79752;BME280;69234;47.446;21.636;2023-05-28T02:26:56;100616.84;;;12.95;67.17
79752;BME280;69234;47.446;21.636;2023-05-28T02:27:28;100620.69;;;12.93;67.35
79752;BME280;69234;47.446;21.636;2023-05-28T02:27:58;100619.13;;;12.90;66.33
79752;BME280;69234;47.446;21.636;2023-05-28T02:28:29;100623.22;;;12.94;66.41
79752;BME280;69234;47.446;21.636;2023-05-28T02:29:00;100617.84;;;12.94;66.45
79752;BME280;69234;47.446;21.636;2023-05-28T02:29:31;100611.75;;;12.92;66.45
79752;BME280;69234;47.446;21.636;2023-05-28T02:30:02;100619.97;;;12.91;66.25
79752;BME280;69234;47.446;21.636;2023-05-28T02:30:33;100619.13;;;12.90;67.40
79752;BME280;69234;47.446;21.636;2023-05-28T02:31:03;100614.00;;;12.87;67.19
79752;BME280;69234;47.446;21.636;2023-05-28T02:31:34;100605.50;;;12.82;66.68
79752;BME280;69234;47.446;21.636;2023-05-28T02:32:05;100619.38;;;12.87;67.63
79752;BME280;69234;47.446;21.636;2023-05-28T02:32:36;100619.28;;;12.89;67.31
79752;BME280;69234;47.446;21.636;2023-05-28T02:33:07;100612.03;;;12.89;66.95
79752;BME280;69234;47.446;21.636;2023-05-28T02:33:39;100614.28;;;12.84;66.77
79752;BME280;69234;47.446;21.636;2023-05-28T02:34:11;100616.84;;;12.85;67.85
79752;BME280;69234;47.446;21.636;2023-05-28T02:34:42;100622.94;;;12.88;66.68
79752;BME280;69234;47.446;21.636;2023-05-28T02:35:14;100618.38;;;12.88;67.29
79752;BME280;69234;47.446;21.636;2023-05-28T02:35:45;100618.38;;;12.88;66.97
79752;BME280;69234;47.446;21.636;2023-05-28T02:36:16;100622.81;;;12.89;66.95
79752;BME280;69234;47.446;21.636;2023-05-28T02:36:47;100615.00;;;12.86;66.90
79752;BME280;69234;47.446;21.636;2023-05-28T02:37:18;100613.16;;;12.87;67.48
79752;BME280;69234;47.446;21.636;2023-05-28T02:37:49;100601.22;;;12.79;67.52
79752;BME280;69234;47.446;21.636;2023-05-28T02:38:20;100615.69;;;12.88;67.05
79752;BME280;69234;47.446;21.636;2023-05-28T02:38:51;100619.38;;;12.87;66.69
79752;BME280;69234;47.446;21.636;2023-05-28T02:39:22;100609.88;;;12.83;67.09
79752;BME280;69234;47.446;21.636;2023-05-28T02:39:53;100617.81;;;12.84;67.27
79752;BME280;69234;47.446;21.636;2023-05-28T02:40:24;100612.41;;;12.84;66.78
79752;BME280;69234;47.446;21.636;2023-05-28T02:40:55;100618.53;;;12.87;67.42
79752;BME280;69234;47.446;21.636;2023-05-28T02:41:26;100615.28;;;12.83;67.50
79752;BME280;69234;47.446;21.636;2023-05-28T02:41:58;100616.13;;;12.83;66.89
79752;BME280;69234;47.446;21.636;2023-05-28T02:42:29;100617.69;;;12.86;67.82
79752;BME280;69234;47.446;21.636;2023-05-28T02:42:59;100621.09;;;12.88;67.67
79752;BME280;69234;47.446;21.636;2023-05-28T02:43:30;100607.91;;;12.85;67.65
79752;BME280;69234;47.446;21.636;2023-05-28T02:44:01;100618.38;;;12.88;67.81
79752;BME280;69234;47.446;21.636;2023-05-28T02:44:32;100616.69;;;12.87;67.48
79752;BME280;69234;47.446;21.636;2023-05-28T02:45:04;100616.00;;;12.85;66.91